createdAt,value
2019-03-26T00:02:19.094Z,5.10
2019-03-26T00:09:06.835Z,5.10
2019-03-26T00:15:51.701Z,5.10
2019-03-26T00:22:36.716Z,5.10
2019-03-26T00:29:21.631Z,5.10
2019-03-26T00:36:06.491Z,5.10
2019-03-26T00:42:53.118Z,5.10
2019-03-26T00:49:37.978Z,5.10
2019-03-26T00:56:22.850Z,5.10
2019-03-26T01:03:09.117Z,5.10
2019-03-26T01:09:55.180Z,5.00
2019-03-26T01:16:40.181Z,4.80
2019-03-26T01:23:25.150Z,4.70
2019-03-26T01:30:11.545Z,4.60
2019-03-26T01:36:56.830Z,4.60
2019-03-26T01:43:41.763Z,4.70
2019-03-26T01:50:26.694Z,4.60
2019-03-26T01:57:11.563Z,4.40
2019-03-26T02:03:56.423Z,4.30
2019-03-26T02:10:41.293Z,3.90
2019-03-26T02:17:26.461Z,3.50
2019-03-26T02:24:11.530Z,3.30
2019-03-26T02:30:56.739Z,3.20
2019-03-26T02:37:42.068Z,3.10
2019-03-26T02:44:27.029Z,3.10
2019-03-26T02:51:11.971Z,2.90
2019-03-26T02:57:56.824Z,2.80
2019-03-26T03:04:41.681Z,2.60
2019-03-26T03:11:26.539Z,2.50
2019-03-26T03:18:12.163Z,2.60
2019-03-26T03:24:57.426Z,2.80
2019-03-26T03:31:42.421Z,3.00
2019-03-26T03:38:27.271Z,3.00
2019-03-26T03:45:14.336Z,3.00
2019-03-26T03:52:00.916Z,3.10
2019-03-26T03:58:47.603Z,3.30
2019-03-26T04:05:32.568Z,3.50
2019-03-26T04:12:17.435Z,3.60
2019-03-26T04:19:02.288Z,3.70
2019-03-26T04:25:47.336Z,3.80
2019-03-26T04:32:32.407Z,3.90
2019-03-26T04:39:17.360Z,3.90
2019-03-26T04:46:02.568Z,3.70
2019-03-26T04:52:47.443Z,3.40
2019-03-26T04:59:32.302Z,3.10
2019-03-26T05:06:17.247Z,3.10
2019-03-26T05:13:02.183Z,3.20
2019-03-26T05:19:47.039Z,3.20
2019-03-26T05:26:31.903Z,3.20
2019-03-26T05:33:16.780Z,3.40
2019-03-26T05:40:01.676Z,3.40
2019-03-26T05:46:46.771Z,3.60
2019-03-26T05:53:34.495Z,4.20
2019-03-26T06:00:21.083Z,4.60
2019-03-26T06:07:05.949Z,4.90
2019-03-26T06:13:50.806Z,5.20
2019-03-26T06:20:35.683Z,5.50
2019-03-26T06:27:20.619Z,5.70
2019-03-26T06:34:05.482Z,6.00
2019-03-26T06:40:50.712Z,6.10
2019-03-26T06:47:35.576Z,5.90
2019-03-26T06:54:20.444Z,5.90
2019-03-26T07:01:05.623Z,6.00
2019-03-26T07:07:50.514Z,6.20
2019-03-26T07:14:35.548Z,6.30
2019-03-26T07:21:20.930Z,6.10
2019-03-26T07:28:05.915Z,6.40
2019-03-26T07:34:50.784Z,6.60
2019-03-26T07:41:35.648Z,6.90
2019-03-26T07:48:20.519Z,6.90
2019-03-26T07:55:07.973Z,7.10
2019-03-26T08:01:53.810Z,7.60
2019-03-26T08:08:40.727Z,8.00
2019-03-26T08:15:25.491Z,8.50
2019-03-26T08:22:10.359Z,9.10
2019-03-26T08:28:55.223Z,9.10
2019-03-26T08:35:40.085Z,9.00
2019-03-26T08:42:24.939Z,8.90
2019-03-26T08:49:09.921Z,9.00
2019-03-26T08:55:54.855Z,9.40
2019-03-26T09:02:39.782Z,10.10
2019-03-26T09:09:24.642Z,10.50
2019-03-26T09:16:09.503Z,11.30
2019-03-26T09:22:54.443Z,13.20
2019-03-26T09:29:39.307Z,14.00
2019-03-26T09:36:25.144Z,16.00
2019-03-26T09:43:10.082Z,21.20
2019-03-26T09:49:54.934Z,17.00
2019-03-26T09:56:39.843Z,13.50
2019-03-26T10:03:24.724Z,10.50
2019-03-26T10:10:11.878Z,9.80
2019-03-26T10:16:56.766Z,9.20
2019-03-26T10:23:41.691Z,9.00
2019-03-26T10:30:38.911Z,9.50
2019-03-26T10:37:23.779Z,10.20
2019-03-26T10:44:08.719Z,10.90
2019-03-26T10:50:53.582Z,11.10
2019-03-26T10:57:38.708Z,12.60
2019-03-26T11:04:24.095Z,13.80
2019-03-26T11:11:09.090Z,13.40
2019-03-26T11:17:54.016Z,13.00
2019-03-26T11:24:38.880Z,13.20
2019-03-26T11:31:23.738Z,13.10
2019-03-26T11:38:08.669Z,13.10
2019-03-26T11:44:53.598Z,12.80
2019-03-26T11:51:38.459Z,11.60
2019-03-26T11:58:30.306Z,10.70
2019-03-26T12:05:10.300Z,10.50
2019-03-26T12:11:55.222Z,10.40
2019-03-26T12:18:40.096Z,11.40
2019-03-26T12:25:25.031Z,12.10
2019-03-26T12:32:09.963Z,12.80
2019-03-26T12:38:55.775Z,12.80
2019-03-26T12:45:40.849Z,13.30
2019-03-26T12:52:25.855Z,12.70
2019-03-26T12:59:10.729Z,12.80
2019-03-26T13:05:55.771Z,12.80
2019-03-26T13:12:40.811Z,13.00
2019-03-26T13:19:25.671Z,13.50
2019-03-26T13:26:10.737Z,13.70
2019-03-26T13:32:55.891Z,13.50
2019-03-26T13:39:41.185Z,12.60
2019-03-26T13:46:26.044Z,12.10
2019-03-26T13:53:11.046Z,12.10
2019-03-26T13:59:56.455Z,12.30
2019-03-26T14:06:41.327Z,12.20
2019-03-26T14:13:26.276Z,11.80
2019-03-26T14:20:12.046Z,11.50
2019-03-26T14:26:57.104Z,11.40
2019-03-26T14:33:42.047Z,11.20
2019-03-26T14:40:27.015Z,10.80
2019-03-26T14:47:12.052Z,10.70
2019-03-26T14:53:56.910Z,10.30
2019-03-26T15:00:41.908Z,10.20
2019-03-26T15:07:27.214Z,10.50
2019-03-26T15:14:12.153Z,11.60
2019-03-26T15:20:57.195Z,11.30
2019-03-26T15:27:42.187Z,12.20
2019-03-26T15:34:36.016Z,12.10
2019-03-26T15:41:21.424Z,11.50
2019-03-26T15:48:00.543Z,11.50
2019-03-26T15:54:45.603Z,11.10
2019-03-26T16:01:31.631Z,10.90
2019-03-26T16:08:16.606Z,9.80
2019-03-26T16:15:01.770Z,9.60
2019-03-26T16:21:48.016Z,9.50
2019-03-26T16:28:33.217Z,9.30
2019-03-26T16:35:18.103Z,9.20
2019-03-26T16:42:03.364Z,8.70
2019-03-26T16:48:48.989Z,8.40
2019-03-26T16:55:34.357Z,8.10
2019-03-26T17:02:20.127Z,8.00
2019-03-26T17:09:07.565Z,7.90
2019-03-26T17:15:52.599Z,7.70
2019-03-26T17:22:37.461Z,7.50
2019-03-26T17:29:22.432Z,7.50
2019-03-26T17:36:07.476Z,7.60
2019-03-26T17:42:53.764Z,7.70
2019-03-26T17:49:38.770Z,7.70
2019-03-26T17:56:24.327Z,7.70
2019-03-26T18:03:09.323Z,7.60
2019-03-26T18:09:54.246Z,7.60
2019-03-26T18:16:40.248Z,7.50
2019-03-26T18:23:25.169Z,7.50
2019-03-26T18:30:10.367Z,7.40
2019-03-26T18:36:55.361Z,7.30
2019-03-26T18:43:40.451Z,7.20
2019-03-26T18:50:25.353Z,7.20
2019-03-26T18:57:10.302Z,7.30
2019-03-26T19:03:55.218Z,7.30
2019-03-26T19:10:40.228Z,7.20
2019-03-26T19:17:25.311Z,7.20
2019-03-26T19:24:10.493Z,7.10
2019-03-26T19:30:55.428Z,7.20
2019-03-26T19:37:40.703Z,7.20
2019-03-26T19:44:25.729Z,7.10
2019-03-26T19:51:10.651Z,7.10
2019-03-26T19:57:55.511Z,7.10
2019-03-26T20:04:40.376Z,7.20
2019-03-26T20:11:25.538Z,7.20
2019-03-26T20:18:10.476Z,7.20
2019-03-26T20:24:55.348Z,7.20
2019-03-26T20:31:40.518Z,7.20
2019-03-26T20:38:25.375Z,7.10
2019-03-26T20:45:14.155Z,7.10
2019-03-26T20:51:59.426Z,7.00
2019-03-26T20:58:45.116Z,7.10
2019-03-26T21:05:30.115Z,7.10
2019-03-26T21:12:15.095Z,7.10
2019-03-26T21:18:59.960Z,7.00
2019-03-26T21:25:45.708Z,7.00
2019-03-26T21:32:30.806Z,7.00
2019-03-26T21:39:15.672Z,7.10
2019-03-26T21:46:00.593Z,7.10
2019-03-26T21:52:45.598Z,7.10
2019-03-26T21:59:30.507Z,7.20
2019-03-26T22:06:15.479Z,7.20
2019-03-26T22:13:00.983Z,7.10
2019-03-26T22:19:45.898Z,7.00
2019-03-26T22:26:30.766Z,7.00
2019-03-26T22:33:15.621Z,7.10
2019-03-26T22:40:00.479Z,7.00
2019-03-26T22:46:45.407Z,7.10
2019-03-26T22:53:31.588Z,7.00
2019-03-26T23:00:19.832Z,7.10
2019-03-26T23:07:06.431Z,7.10
2019-03-26T23:13:52.082Z,7.00
2019-03-26T23:20:37.171Z,7.00
2019-03-26T23:27:22.026Z,7.00
2019-03-26T23:34:06.977Z,7.00
2019-03-26T23:40:51.907Z,6.90
2019-03-26T23:47:36.913Z,6.90
2019-03-26T23:54:21.838Z,6.90
